Time;durP1;ratioP1;P1;durP2;ratioP2;P2;SDS_P1;SDS_P2;PMS_P1;PMS_P2;Temp;Humidity;BMP_temperature;BMP_pressure;BME280_temperature;BME280_humidity;BME280_pressure;Samples;Min_cycle;Max_cycle;Signal;HPM_P1;HPM_P2
2023/11/23 00:00:45;;;;;;;3.60;3.22;;;;;;;;;;6279657;22;20251;-78
2023/11/23 00:03:15;;;;;;;4.45;3.60;;;;;;;;;;6279298;22;20600;-78
2023/11/23 00:05:42;;;;;;;6.40;3.50;;;;;;;;;;6280816;22;20176;-77
2023/11/23 00:08:11;;;;;;;3.38;2.70;;;;;;;;;;6280605;22;20673;-78
2023/11/23 00:10:39;;;;;;;4.07;3.10;;;;;;;;;;6279571;22;20172;-78
2023/11/23 00:13:06;;;;;;;2.97;2.65;;;;;;;;;;6281370;22;20180;-77
2023/11/23 00:15:34;;;;;;;3.38;3.08;;;;;;;;;;6281347;22;20573;-78
2023/11/23 00:18:01;;;;;;;3.22;2.92;;;;;;;;;;6281569;22;20192;-78
2023/11/23 00:20:30;;;;;;;2.75;2.42;;;;;;;;;;6281086;22;20240;-78
2023/11/23 00:22:58;;;;;;;3.15;2.58;;;;;;;;;;6281111;22;20263;-78
2023/11/23 00:25:27;;;;;;;3.35;2.30;;;;;;;;;;6281112;22;20172;-78
2023/11/23 00:27:54;;;;;;;3.20;2.90;;;;;;;;;;6282388;22;20202;-78
2023/11/23 00:30:24;;;;;;;2.17;2.08;;;;;;;;;;6281688;22;20176;-78
2023/11/23 00:32:52;;;;;;;3.28;2.92;;;;;;;;;;6281185;22;20207;-78
2023/11/23 00:35:20;;;;;;;2.40;2.10;;;;;;;;;;6281570;22;20187;-78
2023/11/23 00:37:48;;;;;;;3.78;2.63;;;;;;;;;;6281663;22;20227;-78
2023/11/23 00:40:16;;;;;;;2.58;2.25;;;;;;;;;;6280794;22;20274;-78
2023/11/23 00:42:44;;;;;;;2.05;1.95;;;;;;;;;;6281501;22;20180;-77
2023/11/23 00:45:14;;;;;;;2.25;2.05;;;;;;;;;;6281353;22;20196;-78
2023/11/23 00:47:42;;;;;;;2.08;1.92;;;;;;;;;;6281381;22;20188;-78
2023/11/23 00:50:10;;;;;;;2.50;2.30;;;;;;;;;;6280794;22;20176;-78
2023/11/23 00:52:38;;;;;;;3.55;3.25;;;;;;;;;;6279286;22;20251;-78
2023/11/23 00:55:09;;;;;;;2.33;2.13;;;;;;;;;;6281655;22;20259;-77
2023/11/23 00:57:38;;;;;;;2.70;2.13;;;;;;;;;;6279828;22;20283;-78
2023/11/23 01:00:08;;;;;;;2.47;2.28;;;;;;;;;;6279968;22;20176;-78
2023/11/23 01:02:35;;;;;;;2.25;2.10;;;;;;;;;;6280193;22;20177;-78
2023/11/23 01:05:04;;;;;;;3.58;1.90;;;;;;;;;;6281193;22;20183;-78
2023/11/23 01:07:31;;;;;;;3.63;2.40;;;;;;;;;;6280409;22;20192;-78
2023/11/23 01:09:59;;;;;;;2.15;2.05;;;;;;;;;;6280759;22;20571;-78
2023/11/23 01:12:27;;;;;;;2.45;2.25;;;;;;;;;;6279969;22;20252;-78
2023/11/23 01:14:55;;;;;;;2.55;2.35;;;;;;;;;;6279832;22;20176;-78
2023/11/23 01:17:22;;;;;;;3.83;2.83;;;;;;;;;;6281344;22;20196;-78
2023/11/23 01:19:50;;;;;;;2.92;2.63;;;;;;;;;;6280373;22;20259;-78
2023/11/23 01:22:18;;;;;;;2.60;2.25;;;;;;;;;;6281597;22;20215;-78
2023/11/23 01:24:45;;;;;;;2.35;2.15;;;;;;;;;;6279108;22;20279;-78
2023/11/23 01:27:13;;;;;;;3.90;2.30;;;;;;;;;;6278963;22;20519;-78
2023/11/23 01:29:42;;;;;;;3.65;3.15;;;;;;;;;;6277600;22;20255;-77
2023/11/23 01:32:10;;;;;;;2.97;2.67;;;;;;;;;;6278575;22;20256;-78
2023/11/23 01:34:37;;;;;;;3.65;3.15;;;;;;;;;;6278800;22;20176;-78
2023/11/23 01:37:05;;;;;;;5.07;4.10;;;;;;;;;;6276248;22;20207;-78
2023/11/23 01:39:32;;;;;;;5.40;2.80;;;;;;;;;;6278101;22;20207;-77
2023/11/23 01:42:00;;;;;;;4.57;3.30;;;;;;;;;;6279389;22;20583;-79
2023/11/23 01:44:27;;;;;;;4.15;3.47;;;;;;;;;;6276324;22;20251;-77
2023/11/23 01:46:56;;;;;;;3.10;2.90;;;;;;;;;;6278163;22;20255;-78
2023/11/23 01:49:25;;;;;;;4.82;4.05;;;;;;;;;;6277496;22;20183;-77
2023/11/23 01:51:52;;;;;;;3.10;2.80;;;;;;;;;;6280607;22;20263;-78
2023/11/23 01:54:23;;;;;;;3.90;3.47;;;;;;;;;;6277494;22;20251;-78
2023/11/23 01:56:51;;;;;;;2.75;2.53;;;;;;;;;;6276544;22;20259;-78
2023/11/23 01:59:19;;;;;;;2.95;2.42;;;;;;;;;;6277065;22;20198;-78
2023/11/23 02:01:46;;;;;;;2.50;2.30;;;;;;;;;;6277814;22;20259;-78
2023/11/23 02:04:15;;;;;;;2.47;2.28;;;;;;;;;;6277459;22;20203;-78
2023/11/23 02:06:43;;;;;;;3.35;3.03;;;;;;;;;;6279029;22;20175;-78
2023/11/23 02:09:12;;;;;;;3.63;2.70;;;;;;;;;;6279133;22;20272;-78
2023/11/23 02:11:40;;;;;;;2.88;2.50;;;;;;;;;;6281166;22;20203;-78
2023/11/23 02:14:08;;;;;;;2.97;2.55;;;;;;;;;;6281438;22;20664;-78
2023/11/23 02:16:37;;;;;;;2.92;2.50;;;;;;;;;;6280082;22;20649;-78
2023/11/23 02:19:06;;;;;;;2.33;2.13;;;;;;;;;;6281331;22;20199;-78
2023/11/23 02:21:34;;;;;;;2.30;2.10;;;;;;;;;;6281120;22;20259;-78
2023/11/23 02:24:09;;;;;;;2.53;2.33;;;;;;;;;;6280704;22;20263;-78
2023/11/23 02:26:37;;;;;;;2.63;2.42;;;;;;;;;;6282139;22;20171;-78
2023/11/23 02:29:05;;;;;;;3.47;1.85;;;;;;;;;;6281707;22;20196;-78
2023/11/23 02:31:33;;;;;;;2.60;2.40;;;;;;;;;;6281561;22;20218;-77
2023/11/23 02:34:01;;;;;;;3.67;2.72;;;;;;;;;;6281472;22;20180;-78
2023/11/23 02:36:28;;;;;;;2.45;2.25;;;;;;;;;;6281423;22;20172;-78
2023/11/23 02:38:56;;;;;;;2.40;2.20;;;;;;;;;;6280662;22;20263;-78
2023/11/23 02:41:24;;;;;;;2.13;1.92;;;;;;;;;;6281163;22;20229;-77
2023/11/23 02:43:52;;;;;;;2.33;2.10;;;;;;;;;;6280656;22;20445;-77
2023/11/23 02:46:19;;;;;;;3.00;2.60;;;;;;;;;;6280285;22;20684;-78
2023/11/23 02:48:47;;;;;;;3.22;2.05;;;;;;;;;;6280374;22;20220;-78
2023/11/23 02:51:14;;;;;;;2.97;2.78;;;;;;;;;;6280778;22;20255;-78
2023/11/23 02:53:44;;;;;;;3.42;3.10;;;;;;;;;;6280608;22;20172;-79
2023/11/23 02:56:11;;;;;;;2.90;2.58;;;;;;;;;;6282323;22;20205;-79
2023/11/23 02:58:41;;;;;;;4.38;2.40;;;;;;;;;;6280984;22;20203;-79
2023/11/23 03:01:09;;;;;;;5.63;2.75;;;;;;;;;;6281888;22;20161;-78
2023/11/23 03:03:37;;;;;;;3.65;2.92;;;;;;;;;;6281220;22;20424;-78
2023/11/23 03:06:04;;;;;;;4.03;3.30;;;;;;;;;;6282833;22;20178;-78
2023/11/23 03:08:32;;;;;;;3.08;2.70;;;;;;;;;;6281913;22;20212;-79
2023/11/23 03:10:59;;;;;;;3.63;2.58;;;;;;;;;;6283387;22;20222;-78
2023/11/23 03:13:27;;;;;;;3.47;2.90;;;;;;;;;;6283830;22;20244;-78
2023/11/23 03:15:56;;;;;;;4.78;2.90;;;;;;;;;;6283473;22;20173;-78
2023/11/23 03:18:23;;;;;;;2.72;2.50;;;;;;;;;;6282818;22;20283;-78
2023/11/23 03:20:51;;;;;;;2.75;2.42;;;;;;;;;;6283174;22;20259;-78
2023/11/23 03:23:20;;;;;;;4.05;2.80;;;;;;;;;;6282464;22;20259;-79
2023/11/23 03:25:48;;;;;;;3.03;2.50;;;;;;;;;;6284257;22;20488;-78
2023/11/23 03:28:16;;;;;;;3.17;2.60;;;;;;;;;;6284360;22;20199;-78
2023/11/23 03:30:44;;;;;;;2.85;2.65;;;;;;;;;;6282996;22;20231;-78
2023/11/23 03:33:13;;;;;;;3.40;3.10;;;;;;;;;;6283924;22;20687;-78
2023/11/23 03:35:41;;;;;;;5.40;2.83;;;;;;;;;;6283032;22;20609;-78
2023/11/23 03:38:08;;;;;;;4.18;2.75;;;;;;;;;;6283228;22;20235;-78
2023/11/23 03:40:37;;;;;;;4.28;3.10;;;;;;;;;;6283374;22;20173;-78
2023/11/23 03:43:05;;;;;;;2.38;2.17;;;;;;;;;;6282786;22;20177;-78
2023/11/23 03:45:32;;;;;;;3.17;2.95;;;;;;;;;;6284107;22;20518;-79
2023/11/23 03:48:00;;;;;;;3.00;2.70;;;;;;;;;;6282370;22;20584;-78
2023/11/23 03:50:29;;;;;;;3.03;2.75;;;;;;;;;;6282641;22;20245;-78
2023/11/23 03:52:57;;;;;;;3.13;2.65;;;;;;;;;;6282343;22;20236;-78
2023/11/23 03:55:24;;;;;;;3.38;3.08;;;;;;;;;;6283427;22;20211;-78
2023/11/23 03:57:52;;;;;;;3.05;2.50;;;;;;;;;;6282351;22;20220;-78
2023/11/23 04:00:21;;;;;;;2.85;2.65;;;;;;;;;;6283643;22;20229;-78
2023/11/23 04:02:48;;;;;;;3.35;3.05;;;;;;;;;;6283677;22;20207;-78
2023/11/23 04:05:17;;;;;;;3.47;2.65;;;;;;;;;;6283282;22;20228;-78
2023/11/23 04:07:46;;;;;;;2.50;2.30;;;;;;;;;;6282739;22;20196;-78
2023/11/23 04:10:14;;;;;;;2.88;2.15;;;;;;;;;;6282187;22;20172;-78
2023/11/23 04:12:42;;;;;;;2.83;2.63;;;;;;;;;;6282398;22;20172;-78
2023/11/23 04:15:13;;;;;;;2.65;2.45;;;;;;;;;;6282890;22;20251;-79
2023/11/23 04:17:40;;;;;;;4.28;3.13;;;;;;;;;;6283217;22;20203;-78
2023/11/23 04:20:09;;;;;;;3.92;3.50;;;;;;;;;;6282966;22;20228;-78
2023/11/23 04:22:37;;;;;;;3.00;2.78;;;;;;;;;;6282165;22;20677;-78
2023/11/23 04:25:07;;;;;;;3.15;2.85;;;;;;;;;;6282924;22;20172;-78
2023/11/23 04:27:35;;;;;;;3.08;2.80;;;;;;;;;;6282555;22;20208;-78
2023/11/23 04:30:04;;;;;;;3.70;3.40;;;;;;;;;;6282170;22;20172;-77
2023/11/23 04:32:32;;;;;;;4.00;3.60;;;;;;;;;;6282443;22;20259;-78
2023/11/23 04:35:00;;;;;;;3.08;2.53;;;;;;;;;;6282389;22;20228;-79
2023/11/23 04:37:28;;;;;;;3.53;3.13;;;;;;;;;;6282193;22;20196;-78
2023/11/23 04:39:55;;;;;;;5.03;4.38;;;;;;;;;;6282445;22;20224;-78
2023/11/23 04:42:24;;;;;;;3.92;3.53;;;;;;;;;;6283191;22;20232;-78
2023/11/23 04:44:51;;;;;;;3.55;2.85;;;;;;;;;;6282807;22;20260;-78
2023/11/23 04:47:19;;;;;;;4.20;3.28;;;;;;;;;;6283026;22;20279;-78
2023/11/23 04:49:46;;;;;;;3.05;2.75;;;;;;;;;;6281581;22;20176;-78
2023/11/23 04:52:14;;;;;;;2.50;2.30;;;;;;;;;;6282006;22;20649;-78
2023/11/23 04:54:41;;;;;;;3.22;2.97;;;;;;;;;;6281521;22;20247;-78
2023/11/23 04:57:09;;;;;;;2.60;2.40;;;;;;;;;;6279659;22;20235;-79
2023/11/23 04:59:37;;;;;;;2.67;2.47;;;;;;;;;;6282309;22;20193;-78
2023/11/23 05:02:05;;;;;;;2.63;2.42;;;;;;;;;;6282471;22;20227;-78
2023/11/23 05:04:32;;;;;;;3.25;2.95;;;;;;;;;;6281730;22;20204;-78
2023/11/23 05:07:00;;;;;;;3.00;2.75;;;;;;;;;;6282202;22;20573;-78
2023/11/23 05:09:28;;;;;;;3.20;2.65;;;;;;;;;;6280622;22;20208;-78
2023/11/23 05:11:55;;;;;;;3.45;2.85;;;;;;;;;;6281499;22;20176;-78
2023/11/23 05:14:23;;;;;;;2.90;2.70;;;;;;;;;;6281541;22;20227;-79
2023/11/23 05:16:52;;;;;;;2.83;2.63;;;;;;;;;;6281901;22;20215;-79
2023/11/23 05:19:20;;;;;;;1.92;1.80;;;;;;;;;;6280592;22;20199;-78
2023/11/23 05:21:48;;;;;;;2.50;2.30;;;;;;;;;;6283054;22;20180;-78
2023/11/23 05:24:15;;;;;;;3.25;2.50;;;;;;;;;;6281387;22;20204;-78
2023/11/23 05:26:43;;;;;;;2.58;2.38;;;;;;;;;;6281190;22;20207;-78
2023/11/23 05:29:10;;;;;;;2.50;2.30;;;;;;;;;;6280894;22;20582;-78
2023/11/23 05:31:38;;;;;;;2.25;2.05;;;;;;;;;;6281412;22;20620;-79
2023/11/23 05:34:07;;;;;;;3.30;2.78;;;;;;;;;;6281879;22;20255;-78
2023/11/23 05:36:34;;;;;;;2.90;2.70;;;;;;;;;;6280547;22;20247;-78
2023/11/23 05:39:02;;;;;;;2.30;2.17;;;;;;;;;;6281799;22;20279;-78
2023/11/23 05:41:29;;;;;;;2.90;2.63;;;;;;;;;;6280160;22;20251;-78
2023/11/23 05:43:58;;;;;;;2.47;2.28;;;;;;;;;;6280975;22;20255;-78
2023/11/23 05:46:26;;;;;;;3.28;2.90;;;;;;;;;;6281609;22;20180;-76
2023/11/23 05:48:53;;;;;;;3.90;2.55;;;;;;;;;;6280423;22;20220;-78
2023/11/23 05:51:22;;;;;;;2.97;2.28;;;;;;;;;;6281584;22;20207;-78
2023/11/23 05:53:50;;;;;;;2.50;2.30;;;;;;;;;;6281612;22;20207;-78
2023/11/23 05:56:18;;;;;;;3.90;3.08;;;;;;;;;;6281250;22;20200;-79
2023/11/23 05:58:45;;;;;;;5.45;4.95;;;;;;;;;;6281042;22;20263;-79
2023/11/23 06:01:13;;;;;;;5.82;4.85;;;;;;;;;;6281333;22;20516;-79
2023/11/23 06:03:42;;;;;;;4.10;3.70;;;;;;;;;;6282051;22;20199;-79
2023/11/23 06:06:18;;;;;;;4.40;4.10;;;;;;;;;;6281488;22;20263;-78
2023/11/23 06:08:47;;;;;;;4.30;3.90;;;;;;;;;;6280793;22;20195;-79
2023/11/23 06:11:16;;;;;;;2.83;2.60;;;;;;;;;;6280129;22;20586;-78
2023/11/23 06:13:44;;;;;;;4.43;4.03;;;;;;;;;;6280450;22;20176;-78
2023/11/23 06:16:11;;;;;;;3.00;2.80;;;;;;;;;;6281558;22;20172;-78
2023/11/23 06:18:39;;;;;;;3.60;3.30;;;;;;;;;;6279837;22;20275;-78
2023/11/23 06:21:07;;;;;;;3.97;3.58;;;;;;;;;;6280829;22;20574;-78
2023/11/23 06:23:35;;;;;;;2.78;2.58;;;;;;;;;;6281395;22;20190;-77
2023/11/23 06:26:04;;;;;;;2.88;2.67;;;;;;;;;;6281320;22;20240;-78
2023/11/23 06:28:32;;;;;;;3.22;2.80;;;;;;;;;;6280699;22;20207;-78
2023/11/23 06:30:59;;;;;;;3.13;2.63;;;;;;;;;;6279707;22;20267;-77
2023/11/23 06:33:27;;;;;;;2.47;2.28;;;;;;;;;;6279710;22;20207;-78
2023/11/23 06:35:55;;;;;;;2.22;2.05;;;;;;;;;;6280048;22;20195;-78
2023/11/23 06:38:24;;;;;;;2.63;2.42;;;;;;;;;;6279658;22;20226;-77
2023/11/23 06:40:52;;;;;;;2.55;2.35;;;;;;;;;;6280805;22;20203;-77
2023/11/23 06:43:21;;;;;;;4.50;3.38;;;;;;;;;;6283479;22;20187;-78
2023/11/23 06:45:49;;;;;;;3.85;3.00;;;;;;;;;;6282645;22;20259;-78
2023/11/23 06:48:16;;;;;;;4.05;3.67;;;;;;;;;;6281663;22;20246;-78
2023/11/23 06:50:44;;;;;;;4.03;3.63;;;;;;;;;;6281575;22;20254;-78
2023/11/23 06:53:12;;;;;;;3.80;3.50;;;;;;;;;;6281728;22;20173;-78
2023/11/23 06:55:39;;;;;;;4.47;3.60;;;;;;;;;;6282287;22;20200;-78
2023/11/23 06:58:07;;;;;;;4.00;3.65;;;;;;;;;;6280678;22;20220;-78
2023/11/23 07:00:36;;;;;;;4.60;4.20;;;;;;;;;;6281686;22;20246;-78
2023/11/23 07:03:04;;;;;;;5.13;4.63;;;;;;;;;;6283835;22;20183;-78
2023/11/23 07:05:31;;;;;;;4.70;4.18;;;;;;;;;;6280914;22;20255;-78
2023/11/23 07:07:58;;;;;;;5.55;4.47;;;;;;;;;;6280879;22;20278;-78
2023/11/23 07:10:26;;;;;;;5.97;4.78;;;;;;;;;;6281848;22;20264;-78
2023/11/23 07:12:54;;;;;;;3.90;3.33;;;;;;;;;;6281006;22;20282;-78
2023/11/23 07:15:23;;;;;;;7.63;3.70;;;;;;;;;;6282063;22;20187;-78
2023/11/23 07:17:52;;;;;;;4.78;4.38;;;;;;;;;;6281442;22;20200;-78
2023/11/23 07:20:20;;;;;;;4.20;3.67;;;;;;;;;;6280380;22;20508;-78
2023/11/23 07:22:47;;;;;;;5.07;4.05;;;;;;;;;;6280207;22;20263;-78
2023/11/23 07:25:15;;;;;;;4.00;3.60;;;;;;;;;;6281878;22;20255;-78
2023/11/23 07:27:42;;;;;;;4.25;3.85;;;;;;;;;;6280894;22;20579;-78
2023/11/23 07:30:10;;;;;;;4.70;4.07;;;;;;;;;;6281201;22;20247;-78
2023/11/23 07:32:38;;;;;;;3.88;3.47;;;;;;;;;;6280953;22;20208;-77
2023/11/23 07:35:08;;;;;;;4.43;3.95;;;;;;;;;;6283451;22;20243;-78
2023/11/23 07:37:35;;;;;;;3.90;3.50;;;;;;;;;;6281579;22;20529;-78
2023/11/23 07:40:12;;;;;;;3.70;3.40;;;;;;;;;;6280299;22;20278;-78
2023/11/23 07:42:41;;;;;;;4.45;4.05;;;;;;;;;;6281909;22;20163;-78
2023/11/23 07:45:09;;;;;;;7.75;3.38;;;;;;;;;;6280884;22;20187;-78
2023/11/23 07:47:37;;;;;;;4.13;3.78;;;;;;;;;;6280705;22;20673;-78
2023/11/23 07:50:07;;;;;;;4.20;3.45;;;;;;;;;;6281205;22;20232;-78
2023/11/23 07:52:34;;;;;;;4.88;4.05;;;;;;;;;;6283465;22;20168;-78
2023/11/23 07:55:02;;;;;;;4.65;4.18;;;;;;;;;;6281420;22;20586;-78
2023/11/23 07:57:29;;;;;;;6.05;4.10;;;;;;;;;;6280712;22;20197;-78
2023/11/23 07:59:57;;;;;;;4.45;4.05;;;;;;;;;;6280506;22;20204;-78
2023/11/23 08:02:25;;;;;;;4.75;4.35;;;;;;;;;;6281916;22;20176;-78
2023/11/23 08:04:52;;;;;;;4.50;4.10;;;;;;;;;;6281342;22;20228;-78
2023/11/23 08:07:21;;;;;;;5.25;4.75;;;;;;;;;;6281237;22;20227;-78
2023/11/23 08:09:49;;;;;;;5.32;4.82;;;;;;;;;;6281169;22;20188;-77
2023/11/23 08:12:17;;;;;;;5.55;4.80;;;;;;;;;;6282343;22;20243;-78
2023/11/23 08:14:44;;;;;;;5.78;5.22;;;;;;;;;;6281434;22;20176;-77
2023/11/23 08:17:12;;;;;;;6.85;5.90;;;;;;;;;;6280813;22;20259;-78
2023/11/23 08:19:40;;;;;;;5.38;4.82;;;;;;;;;;6280518;22;20176;-78
2023/11/23 08:22:08;;;;;;;6.47;5.63;;;;;;;;;;6281116;22;20224;-78
2023/11/23 08:24:37;;;;;;;6.75;5.93;;;;;;;;;;6280904;22;20176;-77
2023/11/23 08:27:05;;;;;;;7.10;6.40;;;;;;;;;;6280457;22;20208;-78
2023/11/23 08:29:33;;;;;;;10.93;7.10;;;;;;;;;;6278536;22;20755;-77
2023/11/23 08:32:00;;;;;;;7.00;5.70;;;;;;;;;;6276243;22;20262;-77
2023/11/23 08:34:27;;;;;;;8.45;6.75;;;;;;;;;;6277620;22;20179;-77
2023/11/23 08:36:55;;;;;;;10.32;6.45;;;;;;;;;;6277875;22;20255;-78
2023/11/23 08:39:22;;;;;;;8.70;6.45;;;;;;;;;;6276523;22;20211;-78
2023/11/23 08:41:51;;;;;;;7.75;6.88;;;;;;;;;;6277504;22;20275;-78
2023/11/23 08:44:20;;;;;;;6.50;5.82;;;;;;;;;;6278164;22;20200;-77
2023/11/23 08:46:48;;;;;;;6.82;5.65;;;;;;;;;;6278245;22;20172;-78
2023/11/23 08:49:15;;;;;;;8.23;6.95;;;;;;;;;;6276850;22;20247;-77
2023/11/23 08:51:43;;;;;;;8.65;7.75;;;;;;;;;;6277381;22;20200;-78
2023/11/23 08:54:10;;;;;;;9.73;6.53;;;;;;;;;;6277280;22;20251;-78
2023/11/23 08:56:38;;;;;;;19.48;8.25;;;;;;;;;;6278269;22;20211;-77
2023/11/23 08:59:06;;;;;;;7.95;6.80;;;;;;;;;;6277242;22;20192;-77
2023/11/23 09:01:34;;;;;;;6.65;5.75;;;;;;;;;;6277573;22;20227;-78
2023/11/23 09:04:02;;;;;;;8.13;6.00;;;;;;;;;;6279680;22;20173;-78
2023/11/23 09:06:29;;;;;;;8.35;6.88;;;;;;;;;;6279306;22;20334;-78
2023/11/23 09:09:00;;;;;;;8.50;6.93;;;;;;;;;;6277303;22;20192;-77
2023/11/23 09:11:27;;;;;;;9.68;8.43;;;;;;;;;;6277846;22;20153;-78
2023/11/23 09:13:55;;;;;;;10.13;8.52;;;;;;;;;;6276652;22;20181;-77
2023/11/23 09:16:25;;;;;;;9.35;7.22;;;;;;;;;;6276636;22;20679;-78
2023/11/23 09:18:52;;;;;;;8.15;6.85;;;;;;;;;;6276754;22;20275;-78
2023/11/23 09:21:20;;;;;;;6.55;5.90;;;;;;;;;;6276097;22;20196;-78
2023/11/23 09:23:47;;;;;;;8.23;7.28;;;;;;;;;;6275811;22;20267;-78
2023/11/23 09:26:15;;;;;;;8.38;6.35;;;;;;;;;;6277553;22;20645;-78
2023/11/23 09:28:43;;;;;;;8.88;6.63;;;;;;;;;;6276507;22;20459;-77
2023/11/23 09:31:13;;;;;;;6.78;6.10;;;;;;;;;;6276883;22;20562;-78
2023/11/23 09:33:41;;;;;;;6.90;5.70;;;;;;;;;;6277922;22;20176;-78
2023/11/23 09:36:11;;;;;;;6.43;4.95;;;;;;;;;;6277646;22;20683;-78
2023/11/23 09:38:39;;;;;;;8.38;6.53;;;;;;;;;;6277676;22;20196;-78
2023/11/23 09:41:08;;;;;;;6.80;6.10;;;;;;;;;;6277890;22;20593;-78
2023/11/23 09:43:35;;;;;;;6.38;5.65;;;;;;;;;;6279058;22;20251;-77
2023/11/23 09:46:03;;;;;;;8.45;5.57;;;;;;;;;;6277907;22;20707;-78
2023/11/23 09:48:33;;;;;;;6.60;5.43;;;;;;;;;;6276763;22;20284;-78
2023/11/23 09:51:02;;;;;;;6.20;5.55;;;;;;;;;;6277870;22;20226;-78
2023/11/23 09:53:31;;;;;;;6.15;5.55;;;;;;;;;;6278894;22;20234;-78
2023/11/23 09:55:59;;;;;;;5.45;5.05;;;;;;;;;;6278395;22;20176;-78
2023/11/23 09:58:27;;;;;;;5.45;4.93;;;;;;;;;;6278842;22;20295;-78
2023/11/23 10:00:55;;;;;;;5.50;5.00;;;;;;;;;;6278262;22;20572;-78
2023/11/23 10:03:23;;;;;;;5.93;5.13;;;;;;;;;;6279394;22;20192;-78
2023/11/23 10:05:51;;;;;;;6.82;5.63;;;;;;;;;;6279302;22;20184;-78
2023/11/23 10:08:20;;;;;;;5.55;4.85;;;;;;;;;;6277852;22;20275;-78
2023/11/23 10:10:48;;;;;;;4.22;3.83;;;;;;;;;;6277353;22;20613;-78
2023/11/23 10:13:15;;;;;;;4.47;4.07;;;;;;;;;;6277294;22;20178;-78
2023/11/23 10:15:45;;;;;;;4.57;3.92;;;;;;;;;;6278408;22;20546;-78
2023/11/23 10:18:13;;;;;;;4.38;3.92;;;;;;;;;;6278178;22;20199;-78
2023/11/23 10:20:46;;;;;;;4.38;3.97;;;;;;;;;;6279472;22;20255;-78
2023/11/23 10:23:13;;;;;;;4.22;3.83;;;;;;;;;;6279691;22;20535;-78
2023/11/23 10:25:44;;;;;;;4.28;3.88;;;;;;;;;;6279118;22;20203;-78
2023/11/23 10:28:11;;;;;;;3.83;3.53;;;;;;;;;;6279610;22;20283;-78
2023/11/23 10:30:39;;;;;;;4.13;3.72;;;;;;;;;;6279533;22;20226;-78
2023/11/23 10:33:09;;;;;;;4.00;3.60;;;;;;;;;;6281254;22;20172;-78
2023/11/23 10:35:40;;;;;;;3.83;3.53;;;;;;;;;;6280047;22;20161;-78
2023/11/23 10:38:10;;;;;;;3.90;3.47;;;;;;;;;;6280925;22;20572;-78
2023/11/23 10:40:37;;;;;;;3.88;3.45;;;;;;;;;;6280452;22;20176;-79
2023/11/23 10:43:09;;;;;;;4.13;3.70;;;;;;;;;;6281816;22;20196;-78
2023/11/23 10:45:37;;;;;;;3.42;3.13;;;;;;;;;;6281360;22;20168;-79
2023/11/23 10:48:05;;;;;;;3.25;2.92;;;;;;;;;;6282826;22;20234;-78
2023/11/23 10:50:34;;;;;;;3.35;3.05;;;;;;;;;;6283159;22;20207;-77
2023/11/23 10:53:03;;;;;;;3.58;3.28;;;;;;;;;;6283574;22;20184;-78
2023/11/23 10:55:30;;;;;;;3.92;3.53;;;;;;;;;;6283676;22;20196;-78
2023/11/23 10:58:04;;;;;;;4.63;4.15;;;;;;;;;;6283795;22;20606;-77
2023/11/23 11:00:33;;;;;;;4.22;3.83;;;;;;;;;;6283668;22;20165;-78
2023/11/23 11:03:02;;;;;;;5.45;4.85;;;;;;;;;;6284389;22;20247;-78
2023/11/23 11:05:32;;;;;;;4.03;3.67;;;;;;;;;;6284348;22;20183;-78
2023/11/23 11:08:01;;;;;;;3.55;3.22;;;;;;;;;;6285569;22;20223;-78
2023/11/23 11:10:29;;;;;;;4.43;4.03;;;;;;;;;;6284401;22;20223;-77
2023/11/23 11:13:13;;;;;;;4.10;3.70;;;;;;;;;;6286673;22;20169;-79
2023/11/23 11:15:52;;;;;;;6.68;4.43;;;;;;;;;;6283030;22;20263;-78
2023/11/23 11:18:24;;;;;;;5.90;5.40;;;;;;;;;;6285679;22;20192;-79
2023/11/23 11:21:08;;;;;;;4.30;3.90;;;;;;;;;;6284796;22;20176;-79
2023/11/23 11:23:43;;;;;;;5.50;5.03;;;;;;;;;;6284409;22;20598;-79
2023/11/23 11:26:12;;;;;;;5.80;5.15;;;;;;;;;;6284307;22;20157;-79
2023/11/23 11:28:40;;;;;;;4.45;4.05;;;;;;;;;;6284909;22;20197;-78
2023/11/23 11:31:13;;;;;;;5.65;4.63;;;;;;;;;;6287058;22;20176;-78
2023/11/23 11:33:41;;;;;;;4.60;3.80;;;;;;;;;;6285216;22;20528;-79
2023/11/23 11:36:10;;;;;;;4.25;3.85;;;;;;;;;;6283395;22;20255;-79
2023/11/23 11:38:39;;;;;;;5.07;4.57;;;;;;;;;;6283506;22;20279;-78
2023/11/23 11:41:09;;;;;;;4.20;3.88;;;;;;;;;;6283845;22;20409;-78
2023/11/23 11:43:36;;;;;;;5.15;4.43;;;;;;;;;;6285419;22;20183;-78
2023/11/23 11:46:05;;;;;;;3.85;3.55;;;;;;;;;;6284848;22;20251;-78
2023/11/23 11:48:33;;;;;;;4.40;4.00;;;;;;;;;;6284281;22;20208;-79
2023/11/23 11:51:04;;;;;;;5.03;4.45;;;;;;;;;;6283963;22;20255;-78
2023/11/23 11:53:32;;;;;;;5.95;4.85;;;;;;;;;;6283915;22;20157;-78
2023/11/23 11:56:00;;;;;;;5.57;4.80;;;;;;;;;;6283218;22;20176;-78
2023/11/23 11:58:28;;;;;;;4.82;4.43;;;;;;;;;;6282009;22;20279;-78
2023/11/23 12:00:55;;;;;;;5.05;4.40;;;;;;;;;;6282344;22;20191;-79
2023/11/23 12:03:23;;;;;;;4.53;3.95;;;;;;;;;;6283700;22;20275;-78
2023/11/23 12:05:52;;;;;;;3.90;3.60;;;;;;;;;;6283161;22;20176;-78
2023/11/23 12:08:20;;;;;;;4.57;3.97;;;;;;;;;;6282836;22;20197;-78
2023/11/23 12:10:48;;;;;;;4.45;4.05;;;;;;;;;;6281679;22;20176;-78
2023/11/23 12:13:25;;;;;;;3.85;3.55;;;;;;;;;;6283852;22;20179;-78
2023/11/23 12:15:54;;;;;;;4.13;3.67;;;;;;;;;;6284228;22;20176;-78
2023/11/23 12:18:31;;;;;;;4.50;4.10;;;;;;;;;;6283763;22;20199;-79
2023/11/23 12:21:00;;;;;;;4.28;3.90;;;;;;;;;;6283810;22;20243;-78
2023/11/23 12:23:28;;;;;;;4.15;3.70;;;;;;;;;;6282295;22;20323;-79
2023/11/23 12:25:56;;;;;;;4.65;4.25;;;;;;;;;;6281880;22;20331;-78
2023/11/23 12:28:26;;;;;;;5.18;4.75;;;;;;;;;;6283253;22;20215;-78
2023/11/23 12:30:53;;;;;;;4.93;4.47;;;;;;;;;;6283556;22;20173;-78
2023/11/23 12:33:20;;;;;;;7.32;5.82;;;;;;;;;;6283304;22;20247;-78
2023/11/23 12:35:48;;;;;;;6.20;5.57;;;;;;;;;;6282824;22;20240;-78
2023/11/23 12:38:17;;;;;;;6.57;5.22;;;;;;;;;;6281702;22;20197;-78
2023/11/23 12:40:44;;;;;;;7.22;5.60;;;;;;;;;;6282280;22;20180;-78
2023/11/23 12:43:13;;;;;;;5.72;5.15;;;;;;;;;;6282194;22;20280;-78
2023/11/23 12:45:43;;;;;;;4.50;4.10;;;;;;;;;;6285023;22;20694;-78
2023/11/23 12:48:10;;;;;;;6.53;5.85;;;;;;;;;;6284188;22;20509;-79
2023/11/23 12:50:38;;;;;;;5.47;4.75;;;;;;;;;;6282805;22;20180;-78
2023/11/23 12:53:06;;;;;;;6.03;5.43;;;;;;;;;;6282145;22;20660;-78
2023/11/23 12:55:35;;;;;;;5.57;5.00;;;;;;;;;;6282876;22;20255;-78
2023/11/23 12:58:02;;;;;;;9.00;5.90;;;;;;;;;;6281456;22;20279;-78
2023/11/23 13:00:35;;;;;;;6.63;5.95;;;;;;;;;;6281465;22;20259;-79
2023/11/23 13:03:05;;;;;;;6.82;6.10;;;;;;;;;;6282820;22;20167;-78
2023/11/23 13:05:33;;;;;;;8.05;6.55;;;;;;;;;;6282733;22;20199;-78
2023/11/23 13:08:02;;;;;;;10.05;6.65;;;;;;;;;;6282653;22;20196;-78
2023/11/23 13:10:29;;;;;;;7.20;6.18;;;;;;;;;;6283024;22;20168;-78
2023/11/23 13:13:00;;;;;;;9.00;7.53;;;;;;;;;;6282820;22;20517;-78
2023/11/23 13:15:28;;;;;;;6.95;4.93;;;;;;;;;;6282796;22;20161;-78
2023/11/23 13:17:56;;;;;;;7.20;5.50;;;;;;;;;;6282828;22;20206;-78
2023/11/23 13:20:24;;;;;;;7.43;6.13;;;;;;;;;;6281459;22;20177;-78
2023/11/23 13:22:52;;;;;;;5.45;4.50;;;;;;;;;;6280887;22;20653;-78
2023/11/23 13:25:20;;;;;;;5.85;5.30;;;;;;;;;;6282787;22;20668;-78
2023/11/23 13:27:55;;;;;;;5.82;4.38;;;;;;;;;;6280994;22;20200;-78
2023/11/23 13:30:25;;;;;;;7.45;6.30;;;;;;;;;;6281900;22;20160;-78
2023/11/23 13:32:53;;;;;;;6.85;6.15;;;;;;;;;;6283009;22;20515;-79
2023/11/23 13:35:22;;;;;;;9.02;7.30;;;;;;;;;;6281840;22;20180;-78
2023/11/23 13:37:50;;;;;;;7.65;6.90;;;;;;;;;;6280704;22;20203;-79
2023/11/23 13:40:18;;;;;;;4.95;4.55;;;;;;;;;;6281265;22;20187;-78
2023/11/23 13:42:46;;;;;;;7.57;6.88;;;;;;;;;;6281314;22;20176;-78
2023/11/23 13:45:14;;;;;;;9.20;6.38;;;;;;;;;;6282319;22;20220;-78
2023/11/23 13:47:44;;;;;;;8.20;7.03;;;;;;;;;;6280585;22;20196;-78
2023/11/23 13:50:13;;;;;;;7.90;7.07;;;;;;;;;;6280527;22;20629;-78
2023/11/23 13:52:41;;;;;;;8.13;7.30;;;;;;;;;;6279636;22;20263;-78
2023/11/23 13:55:09;;;;;;;5.90;5.30;;;;;;;;;;6280155;22;20187;-78
2023/11/23 13:57:37;;;;;;;7.03;6.25;;;;;;;;;;6280720;22;20525;-78
2023/11/23 14:00:12;;;;;;;7.68;6.88;;;;;;;;;;6280446;22;20179;-78
2023/11/23 14:02:40;;;;;;;6.07;5.55;;;;;;;;;;6282261;22;20605;-78
2023/11/23 14:05:10;;;;;;;10.57;4.97;;;;;;;;;;6280588;22;20192;-78
2023/11/23 14:07:38;;;;;;;7.88;4.40;;;;;;;;;;6283076;22;20359;-78
2023/11/23 14:10:06;;;;;;;5.45;4.10;;;;;;;;;;6281750;22;20203;-78
2023/11/23 14:12:34;;;;;;;4.10;2.72;;;;;;;;;;6280858;22;20520;-79
2023/11/23 14:15:02;;;;;;;2.92;2.13;;;;;;;;;;6277487;22;20200;-78
2023/11/23 14:17:30;;;;;;;2.28;2.08;;;;;;;;;;6278236;22;20230;-78
2023/11/23 14:20:00;;;;;;;2.92;2.00;;;;;;;;;;6278573;22;20618;-78
2023/11/23 14:22:33;;;;;;;3.05;2.38;;;;;;;;;;6278781;22;20191;-78
2023/11/23 14:25:01;;;;;;;1.90;1.75;;;;;;;;;;6279376;22;20207;-78
2023/11/23 14:27:29;;;;;;;1.73;1.60;;;;;;;;;;6279398;22;20656;-78
2023/11/23 14:29:57;;;;;;;2.63;2.15;;;;;;;;;;6280900;22;20255;-78
2023/11/23 14:32:24;;;;;;;2.30;2.10;;;;;;;;;;6280816;22;20211;-79
2023/11/23 14:34:51;;;;;;;2.05;1.95;;;;;;;;;;6280254;22;20256;-78
2023/11/23 14:37:20;;;;;;;1.67;1.58;;;;;;;;;;6280132;22;20215;-79
2023/11/23 14:39:49;;;;;;;2.08;1.90;;;;;;;;;;6280286;22;20176;-78
2023/11/23 14:42:17;;;;;;;3.88;2.45;;;;;;;;;;6279925;22;20178;-78
2023/11/23 14:44:45;;;;;;;2.15;1.95;;;;;;;;;;6279970;22;20196;-78
2023/11/23 14:47:13;;;;;;;1.73;1.55;;;;;;;;;;6280459;22;20172;-78
2023/11/23 14:49:41;;;;;;;1.85;1.73;;;;;;;;;;6280056;22;20254;-78